Time;durP1;ratioP1;P1;durP2;ratioP2;P2;SDS_P1;SDS_P2;PMS_P1;PMS_P2;Temp;Humidity;BMP_temperature;BMP_pressure;BME280_temperature;BME280_humidity;BME280_pressure;Samples;Min_cycle;Max_cycle;Signal;HPM_P1;HPM_P2
2024/01/04 00:06:00;;;;;;;6.30;5.70;;;;;;;5.64;100.00;97152.17;434733;1256;140432;-67
2024/01/04 00:16:11;;;;;;;4.80;3.40;;;;;;;5.60;100.00;97153.58;435772;1254;140293;-67
2024/01/04 00:26:17;;;;;;;3.90;3.50;;;;;;;5.62;100.00;97149.10;435469;1255;140317;-65
2024/01/04 00:36:23;;;;;;;3.20;2.80;;;;;;;5.57;100.00;97141.96;443579;1254;140042;-66
2024/01/04 00:46:30;;;;;;;8.70;7.40;;;;;;;5.52;100.00;97135.13;434206;1256;140270;-67
2024/01/04 00:56:36;;;;;;;6.30;4.90;;;;;;;5.40;100.00;97135.23;434431;1258;139961;-67
2024/01/04 01:06:42;;;;;;;9.80;7.80;;;;;;;5.16;100.00;97138.90;434287;1258;139771;-67
2024/01/04 01:16:48;;;;;;;11.70;7.50;;;;;;;5.07;100.00;97140.20;434073;1258;138825;-67
2024/01/04 01:26:54;;;;;;;13.40;9.90;;;;;;;5.05;100.00;97138.60;434140;1256;140381;-67
2024/01/04 01:37:01;;;;;;;6.00;4.80;;;;;;;5.06;100.00;97131.02;434133;1256;139916;-67
2024/01/04 01:47:08;;;;;;;6.80;5.50;;;;;;;5.10;100.00;97124.17;435635;1256;139464;-68
2024/01/04 01:57:15;;;;;;;4.70;4.20;;;;;;;5.06;100.00;97115.11;441005;1255;139679;-67
2024/01/04 02:07:23;;;;;;;7.20;5.00;;;;;;;5.06;100.00;97121.52;434327;1256;139035;-67
2024/01/04 02:17:30;;;;;;;6.90;5.40;;;;;;;5.09;100.00;97126.84;439262;1258;141271;-67
2024/01/04 02:27:36;;;;;;;5.20;4.40;;;;;;;5.10;100.00;97129.52;435368;1256;393931;-67
2024/01/04 02:37:42;;;;;;;7.00;5.20;;;;;;;5.09;100.00;97127.17;434371;1256;139974;-66
2024/01/04 02:47:48;;;;;;;6.20;5.20;;;;;;;5.08;100.00;97120.88;434111;1256;139593;-67
2024/01/04 02:57:54;;;;;;;5.00;4.50;;;;;;;5.07;100.00;97117.09;434056;1256;138918;-67
2024/01/04 03:08:01;;;;;;;6.70;5.40;;;;;;;5.09;100.00;97107.90;436906;1258;141525;-67
2024/01/04 03:18:07;;;;;;;4.00;3.40;;;;;;;5.12;100.00;97099.17;434146;1258;139169;-67
2024/01/04 03:28:13;;;;;;;3.40;2.90;;;;;;;5.12;100.00;97093.80;434284;1258;140046;-66
2024/01/04 03:38:19;;;;;;;7.80;6.60;;;;;;;5.16;100.00;97095.07;434362;1258;139874;-66
2024/01/04 03:48:25;;;;;;;7.20;6.50;;;;;;;5.17;100.00;97091.77;434420;1255;138855;-66
2024/01/04 03:58:32;;;;;;;7.60;5.00;;;;;;;5.20;100.00;97087.79;433936;1258;139776;-67
2024/01/04 04:08:39;;;;;;;4.50;3.40;;;;;;;5.20;100.00;97085.54;434605;1257;139709;-67
2024/01/04 04:18:45;;;;;;;4.90;3.80;;;;;;;5.22;100.00;97079.10;434369;1255;141055;-67
2024/01/04 04:28:52;;;;;;;6.40;4.90;;;;;;;5.22;100.00;97076.37;433762;1256;140394;-67
2024/01/04 04:39:00;;;;;;;5.10;3.60;;;;;;;5.19;100.00;97079.69;434351;1258;140484;-67
2024/01/04 04:49:07;;;;;;;3.70;2.80;;;;;;;5.16;100.00;97077.48;434531;1256;139455;-67
2024/01/04 04:59:15;;;;;;;8.60;7.90;;;;;;;5.16;100.00;97081.84;435031;1257;139019;-67
2024/01/04 05:09:22;;;;;;;5.00;3.70;;;;;;;5.15;100.00;97081.05;433973;1258;139872;-66
2024/01/04 05:19:28;;;;;;;5.30;4.00;;;;;;;5.15;100.00;97084.35;434003;1256;140710;-67
2024/01/04 05:29:35;;;;;;;4.40;4.00;;;;;;;5.17;100.00;97082.80;433989;1258;139503;-67
2024/01/04 05:39:42;;;;;;;6.60;4.40;;;;;;;5.21;100.00;97085.10;434224;1256;139170;-67
2024/01/04 05:49:48;;;;;;;4.20;3.70;;;;;;;5.25;100.00;97092.42;434203;1258;141531;-67
2024/01/04 05:59:54;;;;;;;5.40;3.70;;;;;;;5.29;100.00;97099.51;434176;1256;140149;-68
2024/01/04 06:10:00;;;;;;;5.10;4.00;;;;;;;5.31;100.00;97111.31;435640;1258;140240;-67
2024/01/04 06:20:07;;;;;;;4.00;3.70;;;;;;;5.34;100.00;97122.52;434133;1258;139137;-66
2024/01/04 06:30:13;;;;;;;4.20;3.40;;;;;;;5.39;100.00;97129.80;435514;1258;139884;-67
2024/01/04 06:40:19;;;;;;;4.60;3.70;;;;;;;5.42;100.00;97125.67;434013;1258;139054;-67
2024/01/04 06:50:25;;;;;;;4.60;4.00;;;;;;;5.43;100.00;97131.53;433865;1258;138943;-67
2024/01/04 07:00:32;;;;;;;4.10;3.50;;;;;;;5.43;100.00;97135.36;433969;1258;139898;-67
2024/01/04 07:10:40;;;;;;;10.20;3.00;;;;;;;5.46;100.00;97142.71;435039;1255;140426;-72
2024/01/04 07:20:44;;;;;;;;;;;;;;;5.46;100.00;97146.88;433524;1254;139713;-68
2024/01/04 07:30:51;;;;;;;3.60;2.70;;;;;;;5.49;100.00;97141.66;433678;1258;125729;-69
2024/01/04 07:40:57;;;;;;;3.50;3.20;;;;;;;5.51;100.00;97139.44;435651;1255;139551;-66
2024/01/04 07:51:04;;;;;;;3.10;2.40;;;;;;;5.54;100.00;97143.34;433941;1256;140566;-68
2024/01/04 08:01:10;;;;;;;2.70;2.50;;;;;;;5.57;100.00;97148.59;434107;1259;139175;-64
2024/01/04 08:11:16;;;;;;;2.50;2.30;;;;;;;5.61;100.00;97150.19;433860;1258;139078;-67
2024/01/04 08:21:22;;;;;;;3.50;2.50;;;;;;;5.66;100.00;97148.60;433938;1260;139801;-73
2024/01/04 08:31:28;;;;;;;3.70;2.70;;;;;;;5.77;100.00;97158.77;435715;1259;139420;-68
2024/01/04 08:41:34;;;;;;;4.50;4.10;;;;;;;5.96;100.00;97152.89;434293;1260;140145;-66
2024/01/04 08:51:40;;;;;;;2.80;1.70;;;;;;;6.09;100.00;97155.11;434230;1260;139717;-65
2024/01/04 09:01:46;;;;;;;2.10;1.90;;;;;;;6.24;100.00;97168.29;434163;1260;139138;-68
2024/01/04 09:11:52;;;;;;;2.50;2.30;;;;;;;6.37;100.00;97170.84;434093;1260;139874;-66
2024/01/04 09:21:58;;;;;;;2.50;2.30;;;;;;;6.47;100.00;97176.23;433713;1255;139278;-67
2024/01/04 09:32:05;;;;;;;2.20;1.40;;;;;;;6.50;100.00;97187.32;434015;1259;141654;-67
2024/01/04 09:42:14;;;;;;;2.30;1.70;;;;;;;6.44;100.00;97191.13;436693;1256;139924;-66
2024/01/04 09:52:22;;;;;;;2.90;1.70;;;;;;;6.42;100.00;97192.33;440500;1254;139471;-65
2024/01/04 10:02:28;;;;;;;3.40;2.80;;;;;;;6.46;100.00;97198.22;434045;1258;139836;-69
2024/01/04 10:12:36;;;;;;;4.10;2.70;;;;;;;6.42;100.00;97208.61;433747;1259;139514;-66
2024/01/04 10:22:43;;;;;;;3.40;3.10;;;;;;;6.41;100.00;97208.23;435559;1257;140589;-64
2024/01/04 10:32:52;;;;;;;4.70;3.60;;;;;;;6.41;100.00;97208.22;433666;1260;139050;-68
2024/01/04 10:42:58;;;;;;;4.90;3.70;;;;;;;6.35;100.00;97201.09;434686;1259;140329;-68
2024/01/04 10:53:07;;;;;;;4.30;2.70;;;;;;;6.36;100.00;97194.51;433754;1259;139402;-70
2024/01/04 11:03:13;;;;;;;3.00;2.80;;;;;;;6.40;100.00;97201.71;436445;1254;139510;-68
2024/01/04 11:13:19;;;;;;;3.70;1.80;;;;;;;6.33;100.00;97206.65;435135;1257;139435;-77
2024/01/04 11:23:48;;;;;;;1.70;1.20;;;;;;;6.12;100.00;97205.40;437275;1258;139391;-68
2024/01/04 11:33:55;;;;;;;1.80;1.50;;;;;;;5.90;100.00;97199.21;433818;1260;139308;-74
2024/01/04 11:44:02;;;;;;;3.30;1.30;;;;;;;5.88;100.00;97185.48;441187;1254;138557;-84
2024/01/04 11:54:10;;;;;;;1.40;1.00;;;;;;;5.89;100.00;97185.94;441046;1257;141412;-86
2024/01/04 12:04:17;;;;;;;3.70;2.10;;;;;;;5.92;100.00;97191.43;439958;1254;139405;-76
2024/01/04 12:14:24;;;;;;;5.40;3.30;;;;;;;5.93;100.00;97189.95;439199;1254;139250;-71
2024/01/04 12:24:30;;;;;;;3.70;2.40;;;;;;;6.01;100.00;97193.96;438906;1254;138899;-76
2024/01/04 12:34:36;;;;;;;2.60;2.10;;;;;;;6.01;100.00;97189.83;439035;1255;139300;-71
2024/01/04 12:44:43;;;;;;;2.40;2.20;;;;;;;5.96;100.00;97204.48;439632;1254;139912;-78
2024/01/04 12:54:49;;;;;;;2.20;1.90;;;;;;;5.97;100.00;97208.55;439753;1259;139214;-76
2024/01/04 13:04:55;;;;;;;3.20;2.10;;;;;;;6.07;100.00;97208.27;439135;1254;138787;-75
2024/01/04 13:15:01;;;;;;;2.60;2.30;;;;;;;6.03;100.00;97212.72;438040;1254;139624;-69
2024/01/04 13:25:09;;;;;;;5.10;3.40;;;;;;;6.02;100.00;97212.11;434147;1254;139193;-65
2024/01/04 13:35:15;;;;;;;7.20;4.60;;;;;;;6.02;100.00;97213.70;434681;1254;139305;-68
2024/01/04 13:45:22;;;;;;;6.70;3.00;;;;;;;5.96;100.00;97220.27;433587;1255;142685;-64
2024/01/04 13:55:29;;;;;;;5.50;3.60;;;;;;;5.85;100.00;97221.00;437144;1256;139682;-65
2024/01/04 14:05:35;;;;;;;2.40;1.60;;;;;;;5.75;100.00;97218.80;434923;1254;138671;-66
2024/01/04 14:15:47;;;;;;;1.00;0.90;;;;;;;5.55;100.00;97250.83;434338;1254;139821;-78
2024/01/04 14:25:53;;;;;;;1.80;1.00;;;;;;;5.27;100.00;97284.79;437469;1258;149049;-76
2024/01/04 14:35:59;;;;;;;1.90;0.90;;;;;;;5.00;100.00;97285.64;439258;1254;139281;-73
2024/01/04 14:46:06;;;;;;;1.50;0.90;;;;;;;4.74;100.00;97279.34;439012;1256;139293;-71
2024/01/04 14:56:13;;;;;;;1.40;1.10;;;;;;;4.45;100.00;97301.46;439425;1255;140160;-78
2024/01/04 15:06:20;;;;;;;1.20;1.10;;;;;;;4.17;100.00;97315.32;439990;1255;139050;-70
2024/01/04 15:16:27;;;;;;;1.30;1.20;;;;;;;4.07;100.00;97337.70;439143;1254;139311;-80
2024/01/04 15:26:33;;;;;;;1.50;0.90;;;;;;;3.96;100.00;97357.20;439215;1254;140639;-68
2024/01/04 15:36:39;;;;;;;0.90;0.90;;;;;;;3.80;100.00;97368.38;434578;1256;139085;-67
2024/01/04 15:46:46;;;;;;;1.20;1.10;;;;;;;3.66;100.00;97379.08;434222;1256;139185;-69
2024/01/04 15:56:52;;;;;;;2.00;1.70;;;;;;;3.47;100.00;97386.42;434236;1256;139590;-69
2024/01/04 16:06:57;;;;;;;1.80;1.10;;;;;;;3.37;100.00;97389.02;434299;1257;140958;-66
2024/01/04 16:17:04;;;;;;;3.20;1.80;;;;;;;3.32;100.00;97388.48;433762;1258;139162;-67
2024/01/04 16:27:09;;;;;;;4.30;2.20;;;;;;;3.30;100.00;97400.39;436378;1254;140119;-68
2024/01/04 16:37:15;;;;;;;2.60;2.40;;;;;;;3.22;100.00;97406.30;433821;1256;138951;-67
2024/01/04 16:47:22;;;;;;;2.60;2.40;;;;;;;3.12;100.00;97420.31;434030;1256;139700;-69
2024/01/04 16:57:27;;;;;;;2.90;2.20;;;;;;;2.96;100.00;97433.95;435221;1258;139713;-69
2024/01/04 17:07:34;;;;;;;2.00;1.60;;;;;;;2.82;100.00;97463.27;434055;1258;139986;-67
2024/01/04 17:17:40;;;;;;;3.10;2.10;;;;;;;2.61;100.00;97497.10;437380;1256;138921;-69
2024/01/04 17:27:45;;;;;;;2.10;1.90;;;;;;;2.40;100.00;97507.94;433665;1256;141278;-67
2024/01/04 17:37:52;;;;;;;2.40;1.60;;;;;;;2.24;100.00;97522.25;433490;1258;139238;-66
2024/01/04 17:47:57;;;;;;;1.70;1.60;;;;;;;2.09;100.00;97529.54;433704;1258;141018;-67
2024/01/04 17:58:04;;;;;;;2.00;1.90;;;;;;;1.97;100.00;97539.79;433391;1258;141959;-67
2024/01/04 18:08:12;;;;;;;2.20;1.90;;;;;;;1.82;100.00;97556.92;434625;1256;139094;-68
2024/01/04 18:18:18;;;;;;;3.00;2.60;;;;;;;1.78;100.00;97578.48;435859;1254;139163;-69
2024/01/04 18:28:25;;;;;;;2.80;2.50;;;;;;;1.78;100.00;97590.77;436542;1255;139226;-69
2024/01/04 18:38:30;;;;;;;2.80;2.60;;;;;;;1.72;100.00;97608.91;434394;1254;139419;-70
2024/01/04 18:48:37;;;;;;;4.10;3.40;;;;;;;1.66;100.00;97625.85;433946;1256;138818;-69
2024/01/04 18:58:43;;;;;;;2.60;2.40;;;;;;;1.62;100.00;97634.17;438304;1256;139698;-70
2024/01/04 19:08:50;;;;;;;3.80;3.50;;;;;;;1.63;100.00;97657.77;433360;1258;138961;-69
2024/01/04 19:18:55;;;;;;;4.00;3.60;;;;;;;1.57;100.00;97671.02;433814;1256;139428;-62
2024/01/04 19:29:05;;;;;;;3.80;3.20;;;;;;;1.45;100.00;97690.80;434267;1255;140005;-62
2024/01/04 19:39:12;;;;;;;4.60;4.10;;;;;;;1.35;100.00;97705.38;434086;1256;140136;-63
2024/01/04 19:49:20;;;;;;;3.80;3.40;;;;;;;1.28;100.00;97731.09;435734;1256;138824;-62
2024/01/04 19:59:26;;;;;;;4.10;3.10;;;;;;;1.20;100.00;97752.38;435234;1256;139726;-61
2024/01/04 20:09:33;;;;;;;2.80;2.50;;;;;;;1.04;100.00;97783.39;433800;1254;141722;-63
2024/01/04 20:19:39;;;;;;;3.10;2.90;;;;;;;0.85;100.00;97823.34;434416;1256;139441;-62
2024/01/04 20:29:45;;;;;;;3.40;2.80;;;;;;;0.69;100.00;97853.45;437100;1256;138891;-65
2024/01/04 20:39:51;;;;;;;3.30;3.00;;;;;;;0.52;100.00;97878.94;433982;1254;139641;-68
2024/01/04 20:49:57;;;;;;;6.80;6.10;;;;;;;0.33;100.00;97921.54;434015;1256;139140;-67
2024/01/04 21:00:04;;;;;;;6.90;5.10;;;;;;;-0.07;100.00;97956.61;434044;1258;139818;-67
2024/01/04 21:10:11;;;;;;;7.00;5.90;;;;;;;-0.48;100.00;97985.30;436496;1258;140012;-68
2024/01/04 21:20:17;;;;;;;8.40;7.30;;;;;;;-0.76;100.00;98022.61;434015;1256;140210;-66
2024/01/04 21:30:23;;;;;;;6.60;5.60;;;;;;;-1.08;100.00;98074.62;435112;1258;138894;-67
2024/01/04 21:40:28;;;;;;;;;;;;;;;-1.46;100.00;98097.21;437591;1258;139454;-67
2024/01/04 21:50:35;;;;;;;7.90;6.00;;;;;;;-1.65;100.00;98128.83;436214;1256;126721;-68
2024/01/04 22:00:42;;;;;;;6.20;4.20;;;;;;;-1.79;100.00;98169.67;433929;1256;139543;-68
2024/01/04 22:10:48;;;;;;;5.00;4.10;;;;;;;-2.01;100.00;98190.69;433867;1258;139781;-68
2024/01/04 22:20:54;;;;;;;5.30;4.70;;;;;;;-2.19;100.00;98217.36;434355;1256;139954;-67
2024/01/04 22:31:00;;;;;;;4.30;3.80;;;;;;;-2.27;100.00;98241.29;444759;1255;141364;-67
2024/01/04 22:41:05;;;;;;;;;;;;;;;-2.33;100.00;98255.38;434352;1258;140523;-67
2024/01/04 22:51:11;;;;;;;3.20;2.90;;;;;;;-2.38;100.00;98278.85;434066;1255;125833;-68
2024/01/04 23:01:17;;;;;;;4.50;2.60;;;;;;;-2.41;100.00;98287.86;434220;1256;139681;-67
2024/01/04 23:11:22;;;;;;;4.00;3.50;;;;;;;-2.42;100.00;98304.16;434204;1258;139124;-67
2024/01/04 23:21:28;;;;;;;3.70;2.40;;;;;;;-2.42;100.00;98327.48;434127;1258;139940;-68
2024/01/04 23:31:34;;;;;;;3.70;3.30;;;;;;;-2.38;100.00;98340.05;433778;1256;139219;-67
2024/01/04 23:41:41;;;;;;;3.80;3.40;;;;;;;-2.30;100.00;98354.35;433697;1258;139627;-68
2024/01/04 23:51:46;;;;;;;3.40;3.10;;;;;;;-2.22;100.00;98377.24;433743;1258;139514;-68
